Allport, Arkansas
Current Conditions -  °F | °C
As of 12:55 PM on Friday 21 Nov 2014 (Local Time) from KSGT Reporting Station
Overcast Overcast  
Wind Chill: 45°   Ceiling: 3600
Heat Index: 48°   Visibility: 2mi
Dew Point: 45°   Wind: 8mph
Humidity: 87%   Direction: 60°ENE
Pressure: 30.28"   Gusts: NA
Location:  34.5894°N, 91.9107°W
Report Text: KSGT 211855Z AUTO 06007KT 2SM SCT030 OVC036 09/07 A3028 RMK AO1 P0001
Loading
Personal Weather Stations






























Interactive Weather Map New forecast layout! Learn more

10-Day Weather Forecast

Advertisements
Track Severe Weather on mobile